Time;durP1;ratioP1;P1;durP2;ratioP2;P2;SDS_P1;SDS_P2;PMS_P1;PMS_P2;Temp;Humidity;BMP_temperature;BMP_pressure;BME280_temperature;BME280_humidity;BME280_pressure;Samples;Min_cycle;Max_cycle;Signal;HPM_P1;HPM_P2
2022/07/26 00:00:39;;;;;;;;;1.00;1.00;;;;;25.58;42.12;101156.50;2107410;27;47700;-63
2022/07/26 00:01:40;;;;;;;;;1.00;1.00;;;;;25.56;41.86;101153.03;2104554;28;47722;-60
2022/07/26 00:02:40;;;;;;;;;0.00;0.00;;;;;25.55;42.18;101155.88;2112152;27;46299;-64
2022/07/26 00:03:41;;;;;;;;;1.00;1.00;;;;;25.55;42.46;101150.44;2121308;27;47709;-60
2022/07/26 00:04:41;;;;;;;;;0.00;0.00;;;;;25.53;42.02;101156.84;2121595;27;47794;-62
2022/07/26 00:05:42;;;;;;;;;0.50;0.50;;;;;25.53;42.04;101153.25;2122920;27;47747;-58
2022/07/26 00:06:43;;;;;;;;;0.33;0.33;;;;;25.52;42.02;101148.81;2121242;27;47912;-64
2022/07/26 00:07:44;;;;;;;;;0.00;0.00;;;;;25.52;42.60;101162.41;2118812;27;47596;-63
2022/07/26 00:08:45;;;;;;;;;1.00;0.20;;;;;25.52;42.34;101159.69;2087842;28;47567;-59
2022/07/26 00:09:45;;;;;;;;;1.33;1.33;;;;;25.52;42.38;101156.97;2102579;28;46477;-64
2022/07/26 00:10:48;;;;;;;;;1.33;0.67;;;;;25.52;41.78;101157.81;2099309;28;47088;-59
2022/07/26 00:11:49;;;;;;;;;0.00;0.00;;;;;25.52;42.34;101152.41;2088509;28;47416;-63
2022/07/26 00:12:49;;;;;;;;;1.00;0.33;;;;;25.51;42.02;101150.66;2088503;28;47751;-65
2022/07/26 00:13:50;;;;;;;;;0.00;0.00;;;;;25.51;42.66;101153.38;2089466;28;47141;-59
2022/07/26 00:14:50;;;;;;;;;1.00;1.00;;;;;25.52;42.44;101148.81;2083824;28;47080;-59
2022/07/26 00:15:51;;;;;;;;;1.00;1.00;;;;;25.51;42.13;101150.66;2078702;28;47717;-61
2022/07/26 00:16:52;;;;;;;;;1.00;1.00;;;;;25.51;41.90;101147.06;2074230;28;47269;-62
2022/07/26 00:17:52;;;;;;;;;0.00;0.00;;;;;25.49;42.29;101149.06;2094411;28;47910;-63
2022/07/26 00:18:53;;;;;;;;;1.33;1.33;;;;;25.46;41.81;101147.44;2096237;28;47401;-60
2022/07/26 00:19:53;;;;;;;;;0.00;0.00;;;;;25.43;42.00;101153.13;2088429;28;47499;-62
2022/07/26 00:20:54;;;;;;;;;0.33;0.33;;;;;25.42;42.18;101158.69;2093037;28;46675;-61
2022/07/26 00:23:14;;;;;;;;;1.25;0.75;;;;;25.37;42.60;101156.28;2095092;28;46734;-62
2022/07/26 00:24:14;;;;;;;;;1.25;0.00;;;;;25.36;42.63;101161.84;2100437;28;47479;-61
2022/07/26 00:25:14;;;;;;;;;0.00;0.00;;;;;25.34;42.18;101164.69;2079894;28;47173;-63
2022/07/26 00:26:15;;;;;;;;;0.33;0.33;;;;;25.33;42.38;101164.81;2077532;28;48059;-63
2022/07/26 00:27:16;;;;;;;;;2.00;1.25;;;;;25.33;42.30;101167.53;2095605;28;48027;-60
2022/07/26 00:28:16;;;;;;;;;1.67;1.67;;;;;25.30;42.82;101157.78;2103077;28;47349;-63
2022/07/26 00:29:16;;;;;;;;;0.00;0.00;;;;;25.29;42.36;101153.31;2099910;28;47538;-59
2022/07/26 00:30:17;;;;;;;;;0.00;0.00;;;;;25.28;42.84;101156.13;2087070;28;47222;-64
2022/07/26 00:31:17;;;;;;;;;1.00;1.00;;;;;25.28;42.40;101154.28;2071943;28;47126;-65
2022/07/26 00:32:18;;;;;;;;;0.00;0.00;;;;;25.28;42.63;101159.72;2077873;28;47710;-62
2022/07/26 00:33:18;;;;;;;;;1.33;0.00;;;;;25.27;42.82;101157.97;2094954;28;47509;-62
2022/07/26 00:34:18;;;;;;;;;1.00;0.00;;;;;25.27;42.82;101159.84;2097125;28;47893;-60
2022/07/26 00:35:19;;;;;;;;;0.50;0.50;;;;;25.24;42.95;101159.09;2088070;28;47485;-61
2022/07/26 00:36:20;;;;;;;;;1.33;0.33;;;;;25.25;42.72;101162.66;2087820;28;47397;-57
2022/07/26 00:37:20;;;;;;;;;0.33;0.00;;;;;25.24;43.07;101158.22;2094803;28;47785;-63
2022/07/26 00:38:20;;;;;;;;;0.67;0.67;;;;;25.23;43.03;101154.63;2089433;28;47579;-56
2022/07/26 00:39:21;;;;;;;;;0.00;0.00;;;;;25.22;42.83;101152.91;2094815;28;47868;-58
2022/07/26 00:40:21;;;;;;;;;0.67;0.67;;;;;25.20;42.89;101157.59;2108239;27;47650;-63
2022/07/26 00:41:22;;;;;;;;;1.00;1.00;;;;;25.19;43.31;101155.88;2120676;27;47333;-61
2022/07/26 00:42:22;;;;;;;;;0.50;0.50;;;;;25.18;43.00;101165.00;2109030;27;47151;-63
2022/07/26 00:43:23;;;;;;;;;0.67;0.67;;;;;25.17;42.99;101157.84;2083919;28;47633;-63
2022/07/26 00:44:23;;;;;;;;;0.00;0.00;;;;;25.17;42.94;101156.97;2094452;28;47626;-63
2022/07/26 00:45:23;;;;;;;;;1.00;1.00;;;;;25.15;43.00;101151.63;2121555;27;47590;-64
2022/07/26 00:46:25;;;;;;;;;0.00;0.00;;;;;25.13;42.81;101150.00;2119581;27;48280;-62
2022/07/26 00:47:25;;;;;;;;;0.50;0.00;;;;;25.13;42.90;101155.44;2115716;27;47890;-61
2022/07/26 00:48:25;;;;;;;;;0.33;0.00;;;;;25.12;42.70;101164.59;2121032;27;47279;-63
2022/07/26 00:49:26;;;;;;;;;1.00;1.00;;;;;25.11;42.95;101160.13;2121869;27;47502;-63
2022/07/26 00:50:26;;;;;;;;;0.33;0.33;;;;;25.11;42.90;101160.13;2116755;27;48062;-63
2022/07/26 00:51:28;;;;;;;;;0.33;0.00;;;;;25.09;43.06;101157.53;2114317;27;47778;-60
2022/07/26 00:52:28;;;;;;;;;0.00;0.00;;;;;25.07;43.35;101154.06;2111924;27;46590;-65
2022/07/26 00:53:28;;;;;;;;;1.33;1.33;;;;;25.07;43.11;101154.06;2112891;27;47377;-61
2022/07/26 00:54:29;;;;;;;;;0.67;0.67;;;;;25.06;42.89;101159.63;2120554;27;47294;-62
2022/07/26 00:55:29;;;;;;;;;0.00;0.00;;;;;25.05;43.19;101153.34;2121938;27;47345;-65
2022/07/26 00:56:32;;;;;;;;;1.67;1.67;;;;;25.06;43.48;101156.91;2120357;27;47432;-61
2022/07/26 00:57:34;;;;;;;;;1.00;1.00;;;;;25.05;43.39;101158.75;2121186;27;47571;-64
2022/07/26 00:58:34;;;;;;;;;1.00;1.00;;;;;25.05;43.01;101153.34;2119403;27;47414;-60
2022/07/26 00:59:35;;;;;;;;;1.33;1.33;;;;;25.05;43.28;101156.03;2115960;27;47901;-60
2022/07/26 01:00:35;;;;;;;;;1.33;1.00;;;;;25.05;43.31;101150.63;2120800;27;47373;-65
2022/07/26 01:01:36;;;;;;;;;0.00;0.00;;;;;25.05;42.89;101158.75;2122062;27;47435;-62
2022/07/26 01:02:37;;;;;;;;;0.00;0.00;;;;;25.04;43.09;101156.16;2109349;27;47163;-64
2022/07/26 01:03:38;;;;;;;;;0.60;0.60;;;;;25.03;43.35;101151.69;2086997;28;45751;-61
2022/07/26 01:04:38;;;;;;;;;0.00;0.00;;;;;25.03;43.57;101151.69;2094235;28;47723;-64
2022/07/26 01:05:38;;;;;;;;;2.75;2.75;;;;;25.02;43.56;101147.25;2095788;28;47289;-63
2022/07/26 01:06:40;;;;;;;;;1.00;1.00;;;;;25.01;43.64;101143.66;2094525;28;47573;-60
2022/07/26 01:07:40;;;;;;;;;0.00;0.00;;;;;25.00;43.17;101143.75;2095928;28;47902;-63
2022/07/26 01:08:41;;;;;;;;;1.00;1.00;;;;;24.99;43.73;101145.59;2094162;28;47856;-61
2022/07/26 01:09:42;;;;;;;;;0.25;0.25;;;;;24.98;43.45;101148.44;2095662;28;47597;-65
2022/07/26 01:10:42;;;;;;;;;1.50;1.50;;;;;24.96;43.21;101145.84;2094469;28;47552;-62
2022/07/26 01:11:44;;;;;;;;;0.00;0.00;;;;;24.95;43.40;101142.25;2095351;28;47072;-58
2022/07/26 01:12:45;;;;;;;;;1.00;1.00;;;;;24.94;43.26;101147.81;2094755;28;47338;-65
2022/07/26 01:13:50;;;;;;;;;0.00;0.00;;;;;24.92;43.46;101145.22;2095836;28;47457;-63
2022/07/26 01:14:51;;;;;;;;;0.20;0.20;;;;;24.91;43.64;101145.31;2093230;28;47696;-62
2022/07/26 01:15:51;;;;;;;;;2.20;2.20;;;;;24.89;43.55;101142.69;2093049;28;47530;-64
2022/07/26 01:16:52;;;;;;;;;2.50;1.00;;;;;24.90;43.55;101138.13;2093894;28;47835;-59
2022/07/26 01:17:52;;;;;;;;;1.00;1.00;;;;;24.89;43.58;101141.84;2096004;28;47581;-61
2022/07/26 01:18:53;;;;;;;;;1.00;0.00;;;;;24.90;43.54;101140.84;2093878;28;47459;-61
2022/07/26 01:19:53;;;;;;;;;0.25;0.25;;;;;24.89;43.76;101139.97;2093140;28;47460;-64
2022/07/26 01:20:56;;;;;;;;;0.75;0.75;;;;;24.89;43.52;101134.56;2082174;28;48243;-58
2022/07/26 01:21:57;;;;;;;;;3.00;0.00;;;;;24.88;43.90;101132.81;2095875;28;47907;-60
2022/07/26 01:22:58;;;;;;;;;1.20;1.20;;;;;24.88;43.52;101138.25;2093872;28;47799;-62
2022/07/26 01:23:59;;;;;;;;;0.75;0.75;;;;;24.89;43.69;101141.84;2095955;28;47558;-63
2022/07/26 01:24:59;;;;;;;;;3.00;0.00;;;;;24.88;43.87;101138.25;2093536;28;47444;-63
2022/07/26 01:25:59;;;;;;;;;0.75;0.25;;;;;24.88;43.16;101142.81;2087385;28;47848;-64
2022/07/26 01:27:00;;;;;;;;;0.00;0.00;;;;;24.88;43.29;101148.25;2081021;28;47000;-61
2022/07/26 01:28:01;;;;;;;;;0.25;0.25;;;;;24.88;43.30;101142.81;2095972;28;47434;-62
2022/07/26 01:29:02;;;;;;;;;0.60;0.60;;;;;24.85;43.46;101146.63;2094081;28;47436;-64
2022/07/26 01:30:05;;;;;;;;;0.20;0.20;;;;;24.84;43.78;101146.75;2095234;28;47774;-62
2022/07/26 01:31:07;;;;;;;;;0.40;0.20;;;;;24.83;43.37;101147.75;2093956;28;47471;-64
2022/07/26 01:32:07;;;;;;;;;2.00;2.00;;;;;24.83;43.44;101147.75;2095088;28;47501;-58
2022/07/26 01:33:08;;;;;;;;;0.00;0.00;;;;;24.83;43.56;101150.44;2094133;28;47219;-63
2022/07/26 01:34:08;;;;;;;;;0.50;0.00;;;;;24.82;43.51;101144.16;2094848;28;48190;-62
2022/07/26 01:35:09;;;;;;;;;0.00;0.00;;;;;24.81;43.50;101141.56;2100001;27;47608;-60
2022/07/26 01:36:11;;;;;;;;;0.33;0.33;;;;;24.78;43.66;101139.09;2114546;27;47128;-64
2022/07/26 01:37:11;;;;;;;;;0.25;0.00;;;;;24.77;43.75;101140.91;2102720;28;47685;-63
2022/07/26 01:38:12;;;;;;;;;0.00;0.00;;;;;24.75;43.75;101133.84;2094397;27;48089;-63
2022/07/26 01:39:13;;;;;;;;;1.25;1.25;;;;;24.74;44.22;101142.97;2111684;27;47746;-63
2022/07/26 01:40:13;;;;;;;;;0.00;0.00;;;;;24.73;44.04;101133.09;2111589;27;46955;-61
2022/07/26 01:41:14;;;;;;;;;1.00;1.00;;;;;24.72;43.40;101143.09;2112461;27;47326;-61
2022/07/26 01:42:14;;;;;;;;;0.00;0.00;;;;;24.72;44.34;101139.53;2120996;27;47173;-56
2022/07/26 01:43:15;;;;;;;;;0.50;0.50;;;;;24.70;44.21;101134.22;2117283;27;47483;-61
2022/07/26 01:44:15;;;;;;;;;0.67;0.67;;;;;24.71;43.89;101137.78;2113292;27;47481;-62
2022/07/26 01:45:16;;;;;;;;;0.00;0.00;;;;;24.70;43.97;101136.94;2099920;28;47314;-62
2022/07/26 01:46:16;;;;;;;;;0.67;0.67;;;;;24.69;43.91;101143.34;2098275;28;47837;-61
2022/07/26 01:47:17;;;;;;;;;1.00;0.00;;;;;24.69;44.13;101135.19;2117210;27;47788;-59
2022/07/26 01:48:17;;;;;;;;;0.00;0.00;;;;;24.69;43.91;101142.47;2119748;27;47382;-63
2022/07/26 01:49:18;;;;;;;;;0.33;0.00;;;;;24.67;44.20;101133.56;2120955;27;46877;-63
2022/07/26 01:50:18;;;;;;;;;0.00;0.00;;;;;24.66;43.92;101140.84;2119252;27;47332;-67
2022/07/26 01:51:19;;;;;;;;;1.00;1.00;;;;;24.65;43.95;101137.28;2115409;27;47604;-60
2022/07/26 01:52:19;;;;;;;;;0.00;0.00;;;;;24.65;44.21;101140.00;2120258;27;47730;-60
2022/07/26 01:53:20;;;;;;;;;0.00;0.00;;;;;24.64;44.01;101138.22;2099725;28;47096;-60
2022/07/26 01:54:20;;;;;;;;;0.33;0.33;;;;;24.64;43.99;101138.22;2102082;28;47365;-60
2022/07/26 01:55:20;;;;;;;;;0.00;0.00;;;;;24.64;44.12;101134.66;2108128;27;47184;-65
2022/07/26 01:56:21;;;;;;;;;0.00;0.00;;;;;24.64;44.33;101142.78;2111149;27;47865;-63
2022/07/26 01:57:21;;;;;;;;;2.00;0.00;;;;;24.63;44.25;101139.22;2114671;27;47460;-62
2022/07/26 01:58:22;;;;;;;;;0.50;0.00;;;;;24.64;43.93;101134.66;2113481;27;47785;-63
2022/07/26 01:59:22;;;;;;;;;2.00;1.00;;;;;24.65;44.26;101141.84;2119103;27;46763;-60
2022/07/26 02:00:22;;;;;;;;;1.33;1.33;;;;;24.64;44.11;101135.50;2119711;27;47919;-63
2022/07/26 02:01:23;;;;;;;;;0.00;0.00;;;;;24.64;44.11;101140.06;2121654;27;47681;-64
2022/07/26 02:02:23;;;;;;;;;3.00;1.00;;;;;24.63;44.08;101141.91;2119756;27;47561;-62
2022/07/26 02:03:24;;;;;;;;;0.33;0.33;;;;;24.62;43.91;101133.91;2117268;27;47458;-59
2022/07/26 02:05:43;;;;;;;;;0.00;0.00;;;;;24.61;44.16;101130.31;2120490;27;47421;-63
2022/07/26 02:06:44;;;;;;;;;2.00;0.00;;;;;24.61;44.08;101135.75;2116353;27;47339;-62
2022/07/26 02:07:44;;;;;;;;;0.00;0.00;;;;;24.61;44.09;101143.88;2104109;27;47362;-59
2022/07/26 02:08:45;;;;;;;;;1.00;1.00;;;;;24.59;44.15;101132.28;2110459;27;47097;-64
2022/07/26 02:09:45;;;;;;;;;0.67;0.00;;;;;24.58;44.26;101141.41;2121699;27;48598;-66
2022/07/26 02:11:00;;;;;;;;;0.00;0.00;;;;;24.57;44.42;101147.81;2116885;27;47241;-60
2022/07/26 02:12:02;;;;;;;;;0.00;0.00;;;;;24.56;44.39;101140.66;2120186;27;47712;-57
2022/07/26 02:13:02;;;;;;;;;0.00;0.00;;;;;24.55;44.48;101141.63;2118197;27;48013;-61
2022/07/26 02:14:02;;;;;;;;;1.00;0.00;;;;;24.54;44.42;101139.91;2122102;27;47453;-62
2022/07/26 02:15:04;;;;;;;;;1.00;1.00;;;;;24.54;44.55;101142.63;2114564;27;47743;-60
2022/07/26 02:16:08;;;;;;;;;0.75;0.75;;;;;24.55;44.40;101143.50;2116872;27;48340;-62
2022/07/26 02:17:09;;;;;;;;;0.75;0.75;;;;;24.54;44.46;101139.03;2120168;27;47956;-64
2022/07/26 02:18:09;;;;;;;;;0.00;0.00;;;;;24.53;44.46;101148.16;2120917;27;47502;-64
2022/07/26 02:19:10;;;;;;;;;0.67;0.67;;;;;24.52;44.69;101146.41;2117534;27;47493;-62
2022/07/26 02:20:10;;;;;;;;;1.00;1.00;;;;;24.52;44.58;101143.69;2115400;27;47606;-60
2022/07/26 02:21:11;;;;;;;;;0.67;0.67;;;;;24.53;44.68;101145.44;2116404;27;47832;-57
2022/07/26 02:22:11;;;;;;;;;0.00;0.00;;;;;24.51;44.67;101148.25;2116568;27;47679;-61
2022/07/26 02:23:12;;;;;;;;;1.33;0.00;;;;;24.51;44.58;101147.38;2117686;27;47277;-59
2022/07/26 02:24:12;;;;;;;;;1.00;1.00;;;;;24.48;44.44;101143.06;2114190;27;47216;-63
2022/07/26 02:25:12;;;;;;;;;0.33;0.33;;;;;24.48;44.95;101144.91;2120960;27;47667;-62
2022/07/26 02:26:13;;;;;;;;;1.33;1.33;;;;;24.47;44.70;101145.88;2120135;27;47713;-62
2022/07/26 02:27:14;;;;;;;;;1.00;1.00;;;;;24.45;44.72;101137.84;2117001;27;47637;-63
2022/07/26 02:28:15;;;;;;;;;0.00;0.00;;;;;24.45;44.50;101140.56;2120699;27;47511;-61
2022/07/26 02:29:15;;;;;;;;;3.00;3.00;;;;;24.44;44.61;101143.41;2119498;27;48455;-64
2022/07/26 02:30:16;;;;;;;;;0.33;0.33;;;;;24.44;45.05;101148.81;2113411;27;47337;-64
2022/07/26 02:31:16;;;;;;;;;0.67;0.00;;;;;24.42;44.65;101148.94;2116568;27;46987;-66
2022/07/26 02:32:17;;;;;;;;;1.67;0.67;;;;;24.41;44.81;101149.94;2120821;27;47559;-59
2022/07/26 02:33:18;;;;;;;;;0.00;0.00;;;;;24.40;44.85;101141.91;2111767;27;47769;-65
2022/07/26 02:34:19;;;;;;;;;1.25;0.00;;;;;24.38;44.92;101144.69;2111224;27;47349;-61
2022/07/26 02:35:19;;;;;;;;;1.00;1.00;;;;;24.36;44.70;101138.53;2117658;27;47117;-65
2022/07/26 02:36:20;;;;;;;;;1.67;1.67;;;;;24.35;44.71;101140.38;2118594;27;45725;-63
2022/07/26 02:37:20;;;;;;;;;1.00;1.00;;;;;24.35;45.01;101150.34;2121609;27;47890;-66
2022/07/26 02:38:21;;;;;;;;;1.00;0.00;;;;;24.35;44.93;101139.50;2120362;27;45976;-62
2022/07/26 02:39:26;;;;;;;;;0.33;0.33;;;;;24.34;45.04;101149.50;2115151;27;45514;-61
2022/07/26 02:40:27;;;;;;;;;0.00;0.00;;;;;24.34;45.29;101144.06;2114122;27;47333;-67
2022/07/26 02:41:27;;;;;;;;;0.00;0.00;;;;;24.32;45.08;101146.03;2118969;27;47354;-61
2022/07/26 02:42:27;;;;;;;;;0.00;0.00;;;;;24.31;45.23;101149.72;2119042;27;47582;-64
2022/07/26 02:43:29;;;;;;;;;1.33;1.33;;;;;24.31;45.36;101146.13;2119316;27;47763;-62
2022/07/26 02:44:29;;;;;;;;;0.75;0.75;;;;;24.29;45.13;101140.78;2120395;27;46553;-64
2022/07/26 02:45:30;;;;;;;;;0.67;0.67;;;;;24.28;45.30;101143.63;2112748;27;47413;-62
2022/07/26 02:46:31;;;;;;;;;1.00;0.67;;;;;24.27;45.08;101141.88;2111711;27;45387;-65
2022/07/26 02:47:31;;;;;;;;;0.00;0.00;;;;;24.27;45.28;101142.75;2112726;27;45141;-64
2022/07/26 02:48:32;;;;;;;;;0.00;0.00;;;;;24.27;45.67;101142.75;2102965;28;46995;-63
2022/07/26 02:49:32;;;;;;;;;0.00;0.00;;;;;24.26;45.29;101137.41;2112541;27;47650;-65
2022/07/26 02:50:33;;;;;;;;;1.00;1.00;;;;;24.25;45.49;101147.41;2097442;28;45078;-60
2022/07/26 02:51:33;;;;;;;;;0.00;0.00;;;;;24.24;45.73;101140.25;2099294;28;45597;-62
2022/07/26 02:52:34;;;;;;;;;0.00;0.00;;;;;24.24;45.59;101137.53;2111863;27;45925;-61
2022/07/26 02:53:34;;;;;;;;;0.00;0.00;;;;;24.24;45.44;101142.94;2104639;28;45147;-63
2022/07/26 02:54:35;;;;;;;;;0.00;0.00;;;;;24.23;45.69;101135.78;2103109;28;46074;-63
2022/07/26 02:55:35;;;;;;;;;2.67;1.00;;;;;24.23;45.27;101134.94;2106057;27;47840;-64
2022/07/26 02:56:35;;;;;;;;;0.00;0.00;;;;;24.23;45.59;101141.22;2108805;27;46977;-64
2022/07/26 02:57:36;;;;;;;;;0.00;0.00;;;;;24.22;45.59;101147.63;2110803;27;47811;-60
2022/07/26 02:58:36;;;;;;;;;1.33;1.33;;;;;24.23;45.66;101143.94;2101791;27;47897;-64
2022/07/26 02:59:37;;;;;;;;;3.00;1.00;;;;;24.21;45.65;101148.59;2102383;28;48061;-61
2022/07/26 03:00:37;;;;;;;;;0.67;0.67;;;;;24.23;45.65;101145.78;2099853;27;45892;-63
2022/07/26 03:01:38;;;;;;;;;3.33;1.00;;;;;24.22;45.69;101147.63;2101301;28;47229;-62
2022/07/26 03:02:39;;;;;;;;;1.00;0.00;;;;;24.21;45.79;101151.31;2099319;27;47688;-63
2022/07/26 03:03:39;;;;;;;;;1.00;1.00;;;;;24.20;45.68;101148.72;2112860;27;46836;-63
2022/07/26 03:04:39;;;;;;;;;1.00;0.67;;;;;24.19;45.89;101153.28;2112162;27;48568;-64
2022/07/26 03:05:40;;;;;;;;;2.00;1.00;;;;;24.18;45.82;101150.69;2119570;27;47061;-61
2022/07/26 03:06:40;;;;;;;;;2.00;1.00;;;;;24.18;45.88;101156.09;2112855;27;47657;-64
2022/07/26 03:07:41;;;;;;;;;1.00;1.00;;;;;24.18;46.00;101154.25;2107632;27;48611;-60
2022/07/26 03:08:41;;;;;;;;;1.00;1.00;;;;;24.17;46.15;101146.25;2111810;27;46889;-62
2022/07/26 03:09:41;;;;;;;;;1.00;1.00;;;;;24.17;46.05;101152.53;2113041;27;47219;-59
2022/07/26 03:10:42;;;;;;;;;1.00;1.00;;;;;24.16;46.26;101153.50;2108261;27;47802;-61
2022/07/26 03:11:42;;;;;;;;;2.67;0.00;;;;;24.15;46.03;101151.78;2108062;27;45460;-63
2022/07/26 03:12:43;;;;;;;;;1.00;1.00;;;;;24.16;46.26;101148.09;2111230;27;47568;-60
2022/07/26 03:13:43;;;;;;;;;2.00;2.00;;;;;24.14;46.11;101144.63;2111870;27;47942;-64
2022/07/26 03:14:44;;;;;;;;;1.67;1.67;;;;;24.16;45.97;101148.09;2111092;27;46536;-63
2022/07/26 03:15:44;;;;;;;;;1.00;1.00;;;;;24.17;46.20;101146.25;2112074;27;47380;-62
2022/07/26 03:16:45;;;;;;;;;3.00;2.00;;;;;24.18;45.86;101151.53;2111704;27;46435;-63
2022/07/26 03:17:45;;;;;;;;;1.00;0.00;;;;;24.18;45.95;101150.69;2111708;27;47200;-64
2022/07/26 03:18:46;;;;;;;;;2.00;2.00;;;;;24.19;46.35;101152.41;2102534;28;47650;-60
2022/07/26 03:19:46;;;;;;;;;1.00;1.00;;;;;24.18;46.23;101147.97;2103941;28;50587;-60
2022/07/26 03:20:47;;;;;;;;;0.33;0.33;;;;;24.17;45.98;101147.09;2111353;27;47557;-64
2022/07/26 03:21:47;;;;;;;;;3.67;2.00;;;;;24.17;45.97;101143.53;2112566;27;47280;-64
2022/07/26 03:22:47;;;;;;;;;1.33;1.33;;;;;24.17;46.41;101148.94;2109819;27;48288;-65
2022/07/26 03:23:48;;;;;;;;;1.33;1.33;;;;;24.16;45.98;101150.78;2112883;27;48006;-60
2022/07/26 03:24:48;;;;;;;;;1.33;1.33;;;;;24.17;46.07;101157.94;2110822;27;47624;-65
2022/07/26 03:25:49;;;;;;;;;1.00;1.00;;;;;24.15;45.96;101157.19;2112364;27;47494;-58
2022/07/26 03:26:49;;;;;;;;;1.00;1.00;;;;;24.15;45.99;101153.63;2108253;27;47355;-62
2022/07/26 03:27:52;;;;;;;;;0.00;0.00;;;;;24.14;46.37;101155.47;2111870;27;47632;-58
2022/07/26 03:28:54;;;;;;;;;0.25;0.25;;;;;24.15;46.23;101157.19;2108633;27;47692;-63
2022/07/26 03:29:55;;;;;;;;;1.75;1.50;;;;;24.14;46.17;101157.28;2112837;27;48083;-66
2022/07/26 03:30:55;;;;;;;;;0.00;0.00;;;;;24.13;46.33;101158.25;2111714;27;47477;-60
2022/07/26 03:31:56;;;;;;;;;2.00;2.00;;;;;24.12;46.61;101157.38;2110157;27;47442;-62
2022/07/26 03:32:56;;;;;;;;;1.33;0.00;;;;;24.11;46.18;101152.94;2112612;27;47779;-63
2022/07/26 03:33:56;;;;;;;;;0.67;0.33;;;;;24.10;46.30;101153.94;2104353;27;47482;-63
2022/07/26 03:34:57;;;;;;;;;2.00;0.00;;;;;24.09;46.44;101152.19;2109620;27;46923;-62
2022/07/26 03:35:57;;;;;;;;;0.33;0.33;;;;;24.08;46.30;101150.47;2111965;27;47761;-63
2022/07/26 03:36:58;;;;;;;;;0.33;0.00;;;;;24.07;46.68;101148.72;2112656;27;47372;-62
2022/07/26 03:37:58;;;;;;;;;1.00;1.00;;;;;24.07;46.37;101154.16;2104147;27;47624;-61
2022/07/26 03:38:59;;;;;;;;;2.00;2.00;;;;;24.05;46.48;101156.09;2110721;27;47838;-65
2022/07/26 03:39:59;;;;;;;;;1.00;1.00;;;;;24.04;46.61;101163.38;2104663;27;47271;-62
2022/07/26 03:41:00;;;;;;;;;0.00;0.00;;;;;24.04;46.55;101162.50;2111371;27;47309;-62
2022/07/26 03:42:00;;;;;;;;;1.67;1.00;;;;;24.02;46.27;101165.34;2111859;27;47832;-63
2022/07/26 03:43:00;;;;;;;;;3.00;1.33;;;;;24.02;46.41;101169.91;2112449;27;47566;-64
2022/07/26 03:44:01;;;;;;;;;1.33;1.00;;;;;24.01;46.54;101163.59;2103096;28;47420;-63
2022/07/26 03:45:02;;;;;;;;;3.00;2.00;;;;;24.01;46.60;101169.03;2103112;28;47851;-63
2022/07/26 03:46:02;;;;;;;;;0.50;0.50;;;;;23.98;46.79;101169.22;2112116;27;47437;-64
2022/07/26 03:47:03;;;;;;;;;1.00;1.00;;;;;23.99;46.83;101168.25;2110754;27;48196;-60
2022/07/26 03:48:03;;;;;;;;;0.00;0.00;;;;;23.98;46.84;101168.34;2112724;27;47455;-65
2022/07/26 03:49:04;;;;;;;;;1.00;1.00;;;;;23.97;46.72;101167.50;2112194;27;47187;-60
2022/07/26 03:50:06;;;;;;;;;1.33;1.33;;;;;23.97;46.80;101166.63;2113648;27;47182;-65
2022/07/26 03:51:06;;;;;;;;;0.00;0.00;;;;;23.96;46.79;101170.31;2103921;27;47480;-65
2022/07/26 03:52:07;;;;;;;;;2.00;1.33;;;;;23.94;46.97;101166.84;2094627;28;48203;-60
2022/07/26 03:53:07;;;;;;;;;0.00;0.00;;;;;23.95;46.95;101169.44;2103235;28;45834;-65
2022/07/26 03:54:08;;;;;;;;;1.67;1.67;;;;;23.93;46.90;101174.09;2121074;27;47193;-63
2022/07/26 03:56:27;;;;;;;;;1.50;0.50;;;;;23.92;47.10;101171.50;2120492;27;47752;-66
2022/07/26 03:57:28;;;;;;;;;1.00;1.00;;;;;23.90;46.88;101171.63;2102914;28;47931;-60
2022/07/26 03:58:28;;;;;;;;;2.67;0.67;;;;;23.91;46.88;101181.50;2097633;28;47600;-58
2022/07/26 03:59:28;;;;;;;;;0.00;0.00;;;;;23.91;47.14;101177.91;2112588;27;47764;-65
2022/07/26 04:00:29;;;;;;;;;3.00;1.00;;;;;23.90;46.99;101168.91;2095405;28;47409;-61
2022/07/26 04:01:29;;;;;;;;;1.67;1.67;;;;;23.90;47.23;101171.63;2094724;28;47290;-64
2022/07/26 04:02:30;;;;;;;;;1.00;1.00;;;;;23.89;46.96;101169.88;2096008;28;47974;-58
2022/07/26 04:03:30;;;;;;;;;2.00;2.00;;;;;23.90;47.14;101178.88;2102912;28;47660;-64
2022/07/26 04:04:30;;;;;;;;;1.67;1.33;;;;;23.88;46.96;101170.84;2098040;28;47527;-59
2022/07/26 04:05:31;;;;;;;;;1.00;1.00;;;;;23.87;47.25;101160.09;2094857;28;47339;-64
2022/07/26 04:06:31;;;;;;;;;1.00;1.00;;;;;23.88;47.34;101170.84;2120832;27;47832;-61
2022/07/26 04:07:32;;;;;;;;;1.00;0.00;;;;;23.87;47.29;101169.09;2121094;27;47801;-61
2022/07/26 04:08:32;;;;;;;;;3.00;1.00;;;;;23.87;47.18;101169.09;2121009;27;47265;-64
2022/07/26 04:09:32;;;;;;;;;3.00;3.00;;;;;23.86;47.27;101170.06;2120960;27;47364;-64
2022/07/26 04:10:33;;;;;;;;;1.33;1.33;;;;;23.85;47.00;101170.19;2121063;27;47159;-61
2022/07/26 04:11:34;;;;;;;;;1.00;1.00;;;;;23.85;47.30;101175.59;2120824;27;47566;-64
2022/07/26 04:12:34;;;;;;;;;2.25;1.25;;;;;23.84;47.34;101174.75;2121233;27;47630;-64
2022/07/26 04:13:35;;;;;;;;;1.00;1.00;;;;;23.84;47.14;101172.03;2121015;27;47195;-64
2022/07/26 04:14:35;;;;;;;;;3.75;0.00;;;;;23.83;47.23;101173.00;2121227;27;47676;-65
2022/07/26 04:15:36;;;;;;;;;1.67;1.67;;;;;23.84;47.37;101172.03;2120019;27;47586;-59
2022/07/26 04:16:36;;;;;;;;;2.33;1.00;;;;;23.84;47.43;101174.75;2120666;27;47194;-64
2022/07/26 04:17:38;;;;;;;;;0.50;0.50;;;;;23.83;47.42;101173.00;2120863;27;47846;-60
2022/07/26 04:18:39;;;;;;;;;0.00;0.00;;;;;23.84;47.46;101171.16;2120887;27;47625;-58
2022/07/26 04:19:39;;;;;;;;;2.00;2.00;;;;;23.84;47.25;101169.31;2120911;27;47975;-61
2022/07/26 04:20:40;;;;;;;;;0.67;0.67;;;;;23.84;47.57;101177.47;2120666;27;46779;-64
2022/07/26 04:21:40;;;;;;;;;1.33;1.33;;;;;23.84;47.58;101176.59;2120659;27;47740;-63
2022/07/26 04:22:41;;;;;;;;;1.00;0.00;;;;;23.84;47.44;101174.75;2119392;27;47208;-62
2022/07/26 04:23:41;;;;;;;;;1.00;1.00;;;;;23.84;47.30;101174.75;2120928;27;47002;-64
2022/07/26 04:24:42;;;;;;;;;1.00;1.00;;;;;23.84;47.47;101171.16;2121018;27;46985;-57
2022/07/26 04:25:42;;;;;;;;;0.00;0.00;;;;;23.85;47.09;101167.47;2119987;27;47543;-61
2022/07/26 04:26:42;;;;;;;;;3.33;2.00;;;;;23.86;47.55;101166.50;2120753;27;47207;-65
2022/07/26 04:27:43;;;;;;;;;3.00;2.00;;;;;23.86;47.42;101171.94;2119025;27;47326;-60
2022/07/26 04:28:43;;;;;;;;;2.33;2.33;;;;;23.86;47.51;101178.22;2117469;27;47586;-62
2022/07/26 04:29:43;;;;;;;;;2.00;2.00;;;;;23.86;47.64;101175.50;2120856;27;47280;-64
2022/07/26 04:30:44;;;;;;;;;1.00;1.00;;;;;23.86;47.46;101171.94;2116237;27;47437;-64
2022/07/26 04:31:45;;;;;;;;;1.25;1.25;;;;;23.85;47.70;101167.47;2117287;27;47816;-64
2022/07/26 04:32:46;;;;;;;;;1.67;1.67;;;;;23.85;47.71;101173.78;2118701;27;47420;-62
2022/07/26 04:33:46;;;;;;;;;1.00;1.00;;;;;23.84;48.06;101172.03;2121093;27;47973;-63
2022/07/26 04:34:47;;;;;;;;;3.33;3.33;;;;;23.84;47.67;101169.31;2111881;27;47354;-65
2022/07/26 04:35:47;;;;;;;;;1.67;0.67;;;;;23.84;47.74;101171.16;2111838;27;46946;-64
2022/07/26 04:36:47;;;;;;;;;0.67;0.00;;;;;23.82;48.03;101171.28;2121012;27;47477;-59
2022/07/26 04:37:48;;;;;;;;;0.00;0.00;;;;;23.82;47.95;101175.84;2112760;27;47603;-61
2022/07/26 04:38:48;;;;;;;;;0.67;0.67;;;;;23.83;48.01;101174.84;2116401;27;47550;-64
2022/07/26 04:39:49;;;;;;;;;1.67;1.67;;;;;23.82;47.90;101171.28;2119195;27;47553;-61
2022/07/26 04:40:50;;;;;;;;;1.00;1.00;;;;;23.84;47.87;101173.88;2110885;27;47504;-62
2022/07/26 04:41:50;;;;;;;;;2.25;2.25;;;;;23.83;47.85;101172.16;2100720;28;46273;-63
2022/07/26 04:42:51;;;;;;;;;2.25;2.00;;;;;23.83;47.64;101169.44;2077968;28;47543;-62
2022/07/26 04:43:51;;;;;;;;;2.00;2.00;;;;;23.81;47.85;101171.38;2088200;28;48023;-65
2022/07/26 04:44:51;;;;;;;;;1.00;1.00;;;;;23.79;47.89;101166.09;2093935;28;47660;-62
2022/07/26 04:45:52;;;;;;;;;1.33;1.33;;;;;23.77;47.90;101176.16;2094420;28;47377;-61